Am Larafale — 9HA2490 — position and weather

sailwx.info

Track history (hours):
 
Tides and Currents Weather Stations Pressure Air Temp Water Temp Dewpoint Dewpoint Depression Visibility Wind Speed Wind Dir Waves Ship Positions

Am Larafale

Last reported at 2018-Apr-19 10:58 UTC. Time now 2018-Apr-21 04:07 UTC.
Position N 39°31' W 009°47'.

Length 106 m; draft 3.9 m.

Type: Cargo ship. MMSI: 248738000.

Date/timePositionNaut miles runAvg speedWind from/ knotsBaromVisibWave heightAir tempDewpointWater temp
2018-Apr-19 10:58N 39°31' W 009°47'1010.1
2018-Apr-19 09:56N 39°20' W 009°46'410.0
2018-Apr-19 09:30N 39°16' W 009°46'5 9.9
2018-Apr-19 09:00N 39°11' W 009°45'5 9.9
2018-Apr-19 08:30N 39°06' W 009°44'510.0
2018-Apr-19 08:00N 39°01' W 009°44'5 9.9
2018-Apr-19 07:30N 38°56' W 009°43'510.0
2018-Apr-19 07:00N 38°51' W 009°43'510.1
2018-Apr-19 06:30N 38°46' W 009°42'510.3
2018-Apr-19 06:00N 38°41' W 009°41'4 8.5
2018-Apr-19 05:30N 38°39' W 009°37'510.2
2018-Apr-19 05:00N 38°38' W 009°30'510.3
2018-Apr-19 04:30N 38°37' W 009°24'5 9.4
2018-Apr-19 04:00N 38°40' W 009°19'3 6.8
2018-Apr-19 03:30N 38°41' W 009°15'3 1.5
2018-Apr-19 01:49N 38°41' W 009°12'0 0.0
2018-Apr-19 01:28N 38°41' W 009°12'0 0.0
2018-Apr-19 00:52N 38°41' W 009°12'0 0.0
2018-Apr-19 00:28N 38°41' W 009°12'0 0.0
2018-Apr-18 23:16N 38°41' W 009°12'0 0.0
2018-Apr-18 22:13N 38°41' W 009°12'0 0.0
2018-Apr-18 22:00N 38°41' W 009°12'0 0.0
2018-Apr-18 21:28N 38°41' W 009°12'0 0.0
2018-Apr-18 20:58N 38°41' W 009°12'2 4.3
2018-Apr-18 20:28N 38°41' W 009°14'3 6.7
2018-Apr-18 20:00N 38°40' W 009°18'4 8.2
2018-Apr-18 19:30N 38°37' W 009°22'510.1
2018-Apr-18 19:00N 38°32' W 009°23'510.3
2018-Apr-18 18:31N 38°27' W 009°23'510.5
2018-Apr-18 18:01N 38°22' W 009°22'510.5
2018-Apr-18 17:31N 38°17' W 009°22'510.5
2018-Apr-18 17:00N 38°11' W 009°22'510.4
2018-Apr-18 16:30N 38°06' W 009°22'510.4
2018-Apr-18 16:00N 38°01' W 009°22'510.5
2018-Apr-18 15:31N 37°56' W 009°22'510.5
2018-Apr-18 15:01N 37°51' W 009°21'510.5
2018-Apr-18 14:31N 37°45' W 009°21'510.6
2018-Apr-18 14:00N 37°40' W 009°21'510.6
2018-Apr-18 13:30N 37°35' W 009°21'58 8.7
2018-Apr-18 06:52N 36°43' W 008°48'1210.5
2018-Apr-18 05:42N 36°43' W 008°32'1410.6
2018-Apr-18 04:24N 36°44' W 008°15'410.6
2018-Apr-18 04:00N 36°44' W 008°10'  
2018-Apr-13 12:26N 38°48' W 010°05'5 9.8
2018-Apr-13 11:58N 38°52' W 010°05'5 9.6
2018-Apr-13 11:30N 38°57' W 010°05'5 9.5
2018-Apr-13 10:59N 39°02' W 010°05'4 9.1
2018-Apr-13 10:30N 39°06' W 010°05'  
2018-Apr-10 12:29N 47°08' W 002°21'4 9.0
2018-Apr-10 12:00N 47°12' W 002°18'5 9.4
2018-Apr-10 11:28N 47°15' W 002°13'4 7.3
2018-Apr-10 11:00N 47°18' W 002°09'0 0.0
2018-Apr-10 10:30N 47°18' W 002°09'0 0.0
2018-Apr-10 10:00N 47°18' W 002°09'0 0.0
2018-Apr-10 09:30N 47°18' W 002°09'0 0.0
2018-Apr-10 09:00N 47°18' W 002°09'0 0.0
2018-Apr-10 08:30N 47°18' W 002°09'0 0.0
2018-Apr-10 08:00N 47°18' W 002°09'0 0.0
2018-Apr-10 07:30N 47°18' W 002°09'0 0.0
2018-Apr-10 07:00N 47°18' W 002°09'0 0.0
2018-Apr-10 06:27N 47°18' W 002°09'0 0.0
2018-Apr-10 06:00N 47°18' W 002°09'0 0.0
2018-Apr-10 05:30N 47°18' W 002°09'0 0.0
2018-Apr-10 05:00N 47°18' W 002°09'0 0.0
2018-Apr-10 04:30N 47°18' W 002°09'0 0.0
2018-Apr-10 04:00N 47°18' W 002°09'0 0.0
2018-Apr-10 03:30N 47°18' W 002°09'0 0.0
2018-Apr-10 03:00N 47°18' W 002°09'0 0.0
2018-Apr-10 02:27N 47°18' W 002°09'0 0.0
2018-Apr-10 02:00N 47°18' W 002°09'0 0.0
2018-Apr-10 01:24N 47°18' W 002°09'0 0.0
2018-Apr-10 00:48N 47°18' W 002°09'0 0.0
2018-Apr-10 00:18N 47°18' W 002°09'0 0.0
2018-Apr-10 00:00N 47°18' W 002°09'0 0.0
2018-Apr-09 23:24N 47°18' W 002°09'0 0.0
2018-Apr-09 22:48N 47°18' W 002°09'0 0.0
2018-Apr-09 22:30N 47°18' W 002°09'0 0.0
2018-Apr-09 22:00N 47°18' W 002°09'0 0.0
2018-Apr-09 21:30N 47°18' W 002°09'0 0.0
2018-Apr-09 20:57N 47°18' W 002°09'0 0.0
2018-Apr-09 20:30N 47°18' W 002°09'0 0.0
2018-Apr-09 19:57N 47°18' W 002°09'0 0.0
2018-Apr-09 19:30N 47°18' W 002°09'0 0.0
2018-Apr-09 19:00N 47°18' W 002°09'0 0.0
2018-Apr-09 18:27N 47°18' W 002°09'0 0.0
2018-Apr-09 18:00N 47°18' W 002°09'0 0.0
2018-Apr-09 17:30N 47°18' W 002°09'0 0.0
2018-Apr-09 17:00N 47°18' W 002°09'0 0.0
2018-Apr-09 16:24N 47°18' W 002°09'0 0.0
2018-Apr-09 12:54N 47°18' W 002°09'0 0.0
2018-Apr-09 12:27N 47°18' W 002°09'0 0.0
2018-Apr-09 12:00N 47°18' W 002°09'0 0.0
2018-Apr-09 11:24N 47°18' W 002°09'  
Track history (hours):
 
Tides and Currents Weather Stations Pressure Air Temp Water Temp Dewpoint Dewpoint Depression Visibility Wind Speed Wind Dir Waves Ship Positions

Am Larafale

Last reported at 2018-Apr-19 10:58 UTC. Time now 2018-Apr-21 04:07 UTC.
Position N 39°31' W 009°47'.

Length 106 m; draft 3.9 m.

Type: Cargo ship. MMSI: 248738000.

Date/timePositionNaut miles runAvg speedWind from/ knotsBaromVisibWave heightAir tempDewpointWater temp
2018-Apr-19 10:58N 39°31' W 009°47'1010.1
2018-Apr-19 09:56N 39°20' W 009°46'410.0
2018-Apr-19 09:30N 39°16' W 009°46'5 9.9
2018-Apr-19 09:00N 39°11' W 009°45'5 9.9
2018-Apr-19 08:30N 39°06' W 009°44'510.0
2018-Apr-19 08:00N 39°01' W 009°44'5 9.9
2018-Apr-19 07:30N 38°56' W 009°43'510.0
2018-Apr-19 07:00N 38°51' W 009°43'510.1
2018-Apr-19 06:30N 38°46' W 009°42'510.3
2018-Apr-19 06:00N 38°41' W 009°41'4 8.5
2018-Apr-19 05:30N 38°39' W 009°37'510.2
2018-Apr-19 05:00N 38°38' W 009°30'510.3
2018-Apr-19 04:30N 38°37' W 009°24'5 9.4
2018-Apr-19 04:00N 38°40' W 009°19'3 6.8
2018-Apr-19 03:30N 38°41' W 009°15'3 1.5
2018-Apr-19 01:49N 38°41' W 009°12'0 0.0
2018-Apr-19 01:28N 38°41' W 009°12'0 0.0
2018-Apr-19 00:52N 38°41' W 009°12'0 0.0
2018-Apr-19 00:28N 38°41' W 009°12'0 0.0
2018-Apr-18 23:16N 38°41' W 009°12'0 0.0
2018-Apr-18 22:13N 38°41' W 009°12'0 0.0
2018-Apr-18 22:00N 38°41' W 009°12'0 0.0
2018-Apr-18 21:28N 38°41' W 009°12'0 0.0
2018-Apr-18 20:58N 38°41' W 009°12'2 4.3
2018-Apr-18 20:28N 38°41' W 009°14'3 6.7
2018-Apr-18 20:00N 38°40' W 009°18'4 8.2
2018-Apr-18 19:30N 38°37' W 009°22'510.1
2018-Apr-18 19:00N 38°32' W 009°23'510.3
2018-Apr-18 18:31N 38°27' W 009°23'510.5
2018-Apr-18 18:01N 38°22' W 009°22'510.5
2018-Apr-18 17:31N 38°17' W 009°22'510.5
2018-Apr-18 17:00N 38°11' W 009°22'510.4
2018-Apr-18 16:30N 38°06' W 009°22'510.4
2018-Apr-18 16:00N 38°01' W 009°22'510.5
2018-Apr-18 15:31N 37°56' W 009°22'510.5
2018-Apr-18 15:01N 37°51' W 009°21'510.5
2018-Apr-18 14:31N 37°45' W 009°21'510.6
2018-Apr-18 14:00N 37°40' W 009°21'510.6
2018-Apr-18 13:30N 37°35' W 009°21'58 8.7
2018-Apr-18 06:52N 36°43' W 008°48'1210.5
2018-Apr-18 05:42N 36°43' W 008°32'1410.6
2018-Apr-18 04:24N 36°44' W 008°15'410.6
2018-Apr-18 04:00N 36°44' W 008°10'  
2018-Apr-13 12:26N 38°48' W 010°05'5 9.8
2018-Apr-13 11:58N 38°52' W 010°05'5 9.6
2018-Apr-13 11:30N 38°57' W 010°05'5 9.5
2018-Apr-13 10:59N 39°02' W 010°05'4 9.1
2018-Apr-13 10:30N 39°06' W 010°05'  
2018-Apr-10 12:29N 47°08' W 002°21'4 9.0
2018-Apr-10 12:00N 47°12' W 002°18'5 9.4
2018-Apr-10 11:28N 47°15' W 002°13'4 7.3
2018-Apr-10 11:00N 47°18' W 002°09'0 0.0
2018-Apr-10 10:30N 47°18' W 002°09'0 0.0
2018-Apr-10 10:00N 47°18' W 002°09'0 0.0
2018-Apr-10 09:30N 47°18' W 002°09'0 0.0
2018-Apr-10 09:00N 47°18' W 002°09'0 0.0
2018-Apr-10 08:30N 47°18' W 002°09'0 0.0
2018-Apr-10 08:00N 47°18' W 002°09'0 0.0
2018-Apr-10 07:30N 47°18' W 002°09'0 0.0
2018-Apr-10 07:00N 47°18' W 002°09'0 0.0
2018-Apr-10 06:27N 47°18' W 002°09'0 0.0
2018-Apr-10 06:00N 47°18' W 002°09'0 0.0
2018-Apr-10 05:30N 47°18' W 002°09'0 0.0
2018-Apr-10 05:00N 47°18' W 002°09'0 0.0
2018-Apr-10 04:30N 47°18' W 002°09'0 0.0
2018-Apr-10 04:00N 47°18' W 002°09'0 0.0
2018-Apr-10 03:30N 47°18' W 002°09'0 0.0
2018-Apr-10 03:00N 47°18' W 002°09'0 0.0
2018-Apr-10 02:27N 47°18' W 002°09'0 0.0
2018-Apr-10 02:00N 47°18' W 002°09'0 0.0
2018-Apr-10 01:24N 47°18' W 002°09'0 0.0
2018-Apr-10 00:48N 47°18' W 002°09'0 0.0
2018-Apr-10 00:18N 47°18' W 002°09'0 0.0
2018-Apr-10 00:00N 47°18' W 002°09'0 0.0
2018-Apr-09 23:24N 47°18' W 002°09'0 0.0
2018-Apr-09 22:48N 47°18' W 002°09'0 0.0
2018-Apr-09 22:30N 47°18' W 002°09'0 0.0
2018-Apr-09 22:00N 47°18' W 002°09'0 0.0
2018-Apr-09 21:30N 47°18' W 002°09'0 0.0
2018-Apr-09 20:57N 47°18' W 002°09'0 0.0
2018-Apr-09 20:30N 47°18' W 002°09'0 0.0
2018-Apr-09 19:57N 47°18' W 002°09'0 0.0
2018-Apr-09 19:30N 47°18' W 002°09'0 0.0
2018-Apr-09 19:00N 47°18' W 002°09'0 0.0
2018-Apr-09 18:27N 47°18' W 002°09'0 0.0
2018-Apr-09 18:00N 47°18' W 002°09'0 0.0
2018-Apr-09 17:30N 47°18' W 002°09'0 0.0
2018-Apr-09 17:00N 47°18' W 002°09'0 0.0
2018-Apr-09 16:24N 47°18' W 002°09'0 0.0
2018-Apr-09 12:54N 47°18' W 002°09'0 0.0
2018-Apr-09 12:27N 47°18' W 002°09'0 0.0
2018-Apr-09 12:00N 47°18' W 002°09'0 0.0
2018-Apr-09 11:24N 47°18' W 002°09'  

Dump ship's entire track history